createdAt,value
2022-11-20T00:00:21.760Z,17.40
2022-11-20T00:03:09.109Z,17.20
2022-11-20T00:05:36.604Z,19.50
2022-11-20T00:08:04.005Z,20.10
2022-11-20T00:10:31.371Z,22.40
2022-11-20T00:12:58.743Z,22.70
2022-11-20T00:15:26.128Z,25.00
2022-11-20T00:17:53.475Z,25.50
2022-11-20T00:20:21.009Z,25.10
2022-11-20T00:22:48.543Z,24.80
2022-11-20T00:25:15.971Z,25.30
2022-11-20T00:27:43.364Z,25.00
2022-11-20T00:30:14.658Z,25.70
2022-11-20T00:32:42.331Z,26.10
2022-11-20T00:35:09.853Z,25.70
2022-11-20T00:37:37.242Z,24.20
2022-11-20T00:40:04.832Z,24.70
2022-11-20T00:42:34.665Z,23.70
2022-11-20T00:45:02.098Z,23.70
2022-11-20T00:47:29.599Z,25.00
2022-11-20T00:49:57.045Z,24.30
2022-11-20T00:52:24.539Z,22.30
2022-11-20T00:54:51.970Z,22.60
2022-11-20T00:57:19.655Z,23.60
2022-11-20T00:59:47.106Z,22.10
2022-11-20T01:02:14.512Z,22.80
2022-11-20T01:04:41.886Z,22.90
2022-11-20T01:07:09.335Z,21.50
2022-11-20T01:09:36.746Z,21.90
2022-11-20T01:12:04.256Z,21.70
2022-11-20T01:14:31.604Z,21.00
2022-11-20T01:16:59.024Z,22.30
2022-11-20T01:19:26.398Z,21.30
2022-11-20T01:21:53.777Z,21.00
2022-11-20T01:24:21.149Z,21.10
2022-11-20T01:26:48.502Z,21.20
2022-11-20T01:29:15.854Z,20.80
2022-11-20T01:31:43.218Z,20.00
2022-11-20T01:34:10.591Z,19.80
2022-11-20T01:36:38.123Z,22.30
2022-11-20T01:39:05.493Z,20.60
2022-11-20T01:41:32.871Z,20.10
2022-11-20T01:44:00.249Z,19.80
2022-11-20T01:46:27.591Z,20.00
2022-11-20T01:48:54.985Z,20.50
2022-11-20T01:51:22.402Z,19.40
2022-11-20T01:53:50.108Z,20.20
2022-11-20T01:56:17.480Z,20.60
2022-11-20T01:58:44.857Z,19.70
2022-11-20T02:01:12.456Z,19.60
2022-11-20T02:03:39.946Z,19.80
2022-11-20T02:06:07.422Z,19.90
2022-11-20T02:08:34.775Z,20.60
2022-11-20T02:11:02.190Z,19.80
2022-11-20T02:13:29.577Z,19.30
2022-11-20T02:15:57.006Z,18.50
2022-11-20T02:18:24.501Z,20.10
2022-11-20T02:20:51.864Z,20.00
2022-11-20T02:23:19.234Z,19.80
2022-11-20T02:25:46.576Z,19.20
2022-11-20T02:28:13.974Z,18.80
2022-11-20T02:30:41.313Z,19.40
2022-11-20T02:33:08.774Z,20.10
2022-11-20T02:35:36.121Z,19.80
2022-11-20T02:38:03.514Z,19.60
2022-11-20T02:40:31.070Z,19.50
2022-11-20T02:42:58.451Z,19.10
2022-11-20T02:45:25.831Z,19.70
2022-11-20T02:47:53.273Z,19.20
2022-11-20T02:50:20.671Z,19.10
2022-11-20T02:52:48.056Z,19.40
2022-11-20T02:55:15.485Z,18.60
2022-11-20T02:57:42.878Z,18.60
2022-11-20T03:00:10.239Z,19.50
2022-11-20T03:02:37.657Z,18.50
2022-11-20T03:05:05.011Z,19.30
2022-11-20T03:07:32.461Z,19.70
2022-11-20T03:09:59.888Z,19.20
2022-11-20T03:12:27.226Z,18.90
2022-11-20T03:14:54.568Z,18.30
2022-11-20T03:17:22.013Z,19.20
2022-11-20T03:19:49.366Z,18.40
2022-11-20T03:22:16.753Z,18.50
2022-11-20T03:24:44.134Z,19.50
2022-11-20T03:27:11.517Z,18.70
2022-11-20T03:29:38.976Z,18.80
2022-11-20T03:32:06.432Z,19.10
2022-11-20T03:34:33.867Z,19.00
2022-11-20T03:37:01.220Z,18.20
2022-11-20T03:39:28.618Z,17.70
2022-11-20T03:41:56.102Z,17.70
2022-11-20T03:44:23.485Z,19.00
2022-11-20T03:46:50.867Z,18.00
2022-11-20T03:49:18.604Z,17.60
2022-11-20T03:51:46.193Z,19.30
2022-11-20T03:54:13.599Z,18.10
2022-11-20T03:56:40.959Z,17.10
2022-11-20T03:59:08.305Z,17.40
2022-11-20T04:01:35.754Z,17.20
2022-11-20T04:04:03.210Z,17.40
2022-11-20T04:06:30.597Z,16.70
2022-11-20T04:08:57.978Z,17.60
2022-11-20T04:11:25.486Z,17.10
2022-11-20T04:13:52.981Z,16.90
2022-11-20T04:16:20.307Z,18.00
2022-11-20T04:18:47.682Z,17.10
2022-11-20T04:21:15.026Z,17.10
2022-11-20T04:23:42.425Z,17.60
2022-11-20T04:26:09.762Z,15.90
2022-11-20T04:28:37.198Z,15.90
2022-11-20T04:31:04.602Z,17.70
2022-11-20T04:33:34.293Z,16.50
2022-11-20T04:36:01.896Z,17.40
2022-11-20T04:38:29.243Z,16.80
2022-11-20T04:40:56.672Z,17.30
2022-11-20T04:43:24.063Z,16.40
2022-11-20T04:45:51.621Z,16.30
2022-11-20T04:48:19.097Z,17.20
2022-11-20T04:50:46.556Z,17.40
2022-11-20T04:53:13.897Z,17.40
2022-11-20T04:55:41.269Z,17.50
2022-11-20T04:58:08.674Z,18.00
2022-11-20T05:00:36.064Z,16.40
2022-11-20T05:03:03.409Z,16.00
2022-11-20T05:05:30.833Z,16.60
2022-11-20T05:07:58.197Z,16.70
2022-11-20T05:10:25.582Z,16.40
2022-11-20T05:12:53.001Z,17.40
2022-11-20T05:15:20.473Z,17.60
2022-11-20T05:17:47.919Z,16.60
2022-11-20T05:20:15.279Z,16.30
2022-11-20T05:22:42.645Z,16.60
2022-11-20T05:25:09.989Z,17.20
2022-11-20T05:27:37.357Z,17.20
2022-11-20T05:30:04.724Z,16.80
2022-11-20T05:32:32.154Z,16.60
2022-11-20T05:34:59.555Z,16.30
2022-11-20T05:37:27.063Z,15.80
2022-11-20T05:39:54.470Z,16.00
2022-11-20T05:42:21.871Z,15.80
2022-11-20T05:44:49.224Z,17.00
2022-11-20T05:47:16.607Z,16.60
2022-11-20T05:49:43.980Z,17.40
2022-11-20T05:52:11.416Z,17.00
2022-11-20T05:54:39.007Z,16.80
2022-11-20T05:57:06.482Z,15.60
2022-11-20T05:59:33.941Z,16.30
2022-11-20T06:02:01.355Z,17.30
2022-11-20T06:04:28.900Z,16.70
2022-11-20T06:06:56.362Z,16.90
2022-11-20T06:09:23.938Z,17.70
2022-11-20T06:11:51.503Z,16.70
2022-11-20T06:14:18.977Z,16.80
2022-11-20T06:16:46.414Z,16.60
2022-11-20T06:19:13.830Z,16.80
2022-11-20T06:21:41.433Z,16.50
2022-11-20T06:24:08.835Z,17.30
2022-11-20T06:26:36.274Z,16.90
2022-11-20T06:29:03.699Z,16.40
2022-11-20T06:31:31.129Z,16.40
2022-11-20T06:33:58.481Z,16.80
2022-11-20T06:36:25.840Z,16.20
2022-11-20T06:38:53.247Z,16.10
2022-11-20T06:41:20.802Z,16.60
2022-11-20T06:43:48.174Z,16.60
2022-11-20T06:46:15.577Z,17.00
2022-11-20T06:48:42.977Z,16.30
2022-11-20T06:51:10.413Z,16.90
2022-11-20T06:53:37.806Z,15.70
2022-11-20T06:56:05.264Z,17.40
2022-11-20T06:58:32.679Z,17.70
2022-11-20T07:01:00.229Z,16.60
2022-11-20T07:03:27.690Z,16.60
2022-11-20T07:05:55.041Z,17.00
2022-11-20T07:08:22.489Z,17.20
2022-11-20T07:10:49.873Z,17.00
2022-11-20T07:13:17.318Z,16.30
2022-11-20T07:15:44.701Z,16.90
2022-11-20T07:18:12.082Z,16.80
2022-11-20T07:20:39.473Z,16.60
2022-11-20T07:23:06.841Z,18.40
2022-11-20T07:25:34.232Z,17.40
2022-11-20T07:28:01.627Z,16.60
2022-11-20T07:30:29.113Z,16.70
2022-11-20T07:32:56.464Z,16.70
2022-11-20T07:35:23.818Z,16.90
2022-11-20T07:37:51.199Z,17.80
2022-11-20T07:40:18.557Z,16.90
2022-11-20T07:42:46.075Z,17.00
2022-11-20T07:45:13.480Z,17.70
2022-11-20T07:47:40.840Z,18.50
2022-11-20T07:50:08.290Z,16.70
2022-11-20T07:52:35.652Z,17.70
2022-11-20T07:55:03.041Z,16.50
2022-11-20T07:57:30.381Z,16.70
2022-11-20T07:59:57.829Z,17.50
2022-11-20T08:02:25.192Z,17.10
2022-11-20T08:04:52.601Z,17.20
2022-11-20T08:07:19.970Z,17.40
2022-11-20T08:09:47.328Z,16.60
2022-11-20T08:12:14.744Z,17.40
2022-11-20T08:14:42.160Z,17.50
2022-11-20T08:17:09.540Z,16.50
2022-11-20T08:19:36.886Z,17.80
2022-11-20T08:22:04.296Z,18.30
2022-11-20T08:24:31.675Z,18.60
2022-11-20T08:26:59.049Z,17.70
2022-11-20T08:29:26.486Z,18.10
2022-11-20T08:31:53.980Z,18.00
2022-11-20T08:34:38.211Z,18.10
2022-11-20T08:37:05.601Z,18.40
2022-11-20T08:39:33.085Z,18.00
2022-11-20T08:42:00.551Z,17.60
2022-11-20T08:44:27.965Z,18.10
2022-11-20T08:46:55.360Z,18.40
2022-11-20T08:49:22.939Z,19.00
2022-11-20T08:51:50.476Z,18.30
2022-11-20T08:54:17.818Z,19.20
2022-11-20T08:56:45.246Z,17.90
2022-11-20T08:59:50.804Z,18.70
2022-11-20T09:02:00.029Z,19.60
2022-11-20T09:04:27.527Z,19.40
2022-11-20T09:06:54.961Z,18.90
2022-11-20T09:09:22.623Z,19.00
2022-11-20T09:11:50.262Z,19.80
2022-11-20T09:14:17.752Z,18.60
2022-11-20T09:16:45.148Z,18.50
2022-11-20T09:19:34.655Z,18.40
2022-11-20T09:22:00.211Z,19.30
2022-11-20T09:24:27.644Z,18.50
2022-11-20T09:26:55.072Z,19.20
2022-11-20T09:29:22.917Z,19.10
2022-11-20T09:31:50.946Z,19.00
2022-11-20T09:34:18.317Z,18.60
2022-11-20T09:36:45.726Z,17.50
2022-11-20T09:39:13.162Z,18.60
2022-11-20T09:41:40.555Z,17.90
2022-11-20T09:44:07.966Z,19.90
2022-11-20T09:46:35.331Z,18.30
2022-11-20T09:49:02.699Z,18.40
2022-11-20T09:51:30.265Z,18.10
2022-11-20T09:53:57.661Z,18.70
2022-11-20T09:56:25.036Z,18.00
2022-11-20T09:58:52.428Z,19.70
2022-11-20T10:01:19.858Z,18.20
2022-11-20T10:03:47.253Z,19.30
2022-11-20T10:06:14.639Z,17.80
2022-11-20T10:08:42.013Z,19.40
2022-11-20T10:11:09.395Z,18.10
2022-11-20T10:13:36.949Z,17.60
2022-11-20T10:16:04.339Z,18.80
2022-11-20T10:18:31.704Z,19.30
2022-11-20T10:20:59.215Z,17.90
2022-11-20T10:23:26.592Z,17.70
2022-11-20T10:25:53.967Z,17.80
2022-11-20T10:28:21.305Z,18.40
2022-11-20T10:30:48.750Z,17.80
2022-11-20T10:33:16.144Z,18.30
2022-11-20T10:35:43.569Z,19.10
2022-11-20T10:38:10.956Z,18.90
2022-11-20T10:40:38.308Z,17.60
2022-11-20T10:43:05.724Z,17.50
2022-11-20T10:45:33.137Z,16.20
2022-11-20T10:48:00.493Z,17.70
2022-11-20T10:50:28.253Z,16.20
2022-11-20T10:52:55.623Z,18.00
2022-11-20T10:55:23.075Z,17.60
2022-11-20T10:57:50.535Z,18.40
2022-11-20T11:00:18.125Z,18.30
2022-11-20T11:02:45.597Z,19.30
2022-11-20T11:05:14.606Z,20.70
2022-11-20T11:07:42.342Z,19.80
2022-11-20T11:10:09.780Z,19.20
2022-11-20T11:12:37.356Z,20.50
2022-11-20T11:15:05.093Z,20.40
2022-11-20T11:17:32.523Z,19.30
2022-11-20T11:19:59.926Z,18.50
2022-11-20T11:22:27.334Z,19.20
2022-11-20T11:24:54.694Z,18.50
2022-11-20T11:27:22.086Z,17.50
2022-11-20T11:29:49.433Z,17.50
2022-11-20T11:32:16.845Z,16.60
2022-11-20T11:34:44.274Z,18.20
2022-11-20T11:37:11.680Z,16.40
2022-11-20T11:39:39.097Z,18.10
2022-11-20T11:42:06.444Z,16.70
2022-11-20T11:44:33.801Z,15.90
2022-11-20T11:47:01.203Z,16.60
2022-11-20T11:49:28.619Z,15.90
2022-11-20T11:51:56.042Z,16.20
2022-11-20T11:54:23.424Z,16.90
2022-11-20T11:56:50.776Z,15.20
2022-11-20T11:59:19.358Z,15.00
2022-11-20T12:01:47.640Z,15.00
2022-11-20T12:04:17.312Z,15.10
2022-11-20T12:06:44.647Z,15.40
2022-11-20T12:09:12.049Z,15.30
2022-11-20T12:11:39.416Z,13.60
2022-11-20T12:14:06.880Z,14.60
2022-11-20T12:16:34.274Z,14.40
2022-11-20T12:19:01.725Z,15.00
2022-11-20T12:21:29.099Z,15.40
2022-11-20T12:23:56.582Z,15.20
2022-11-20T12:26:24.054Z,14.20
2022-11-20T12:28:51.534Z,14.00
2022-11-20T12:31:18.899Z,14.00
2022-11-20T12:33:46.297Z,19.20
2022-11-20T12:36:13.733Z,15.50
2022-11-20T12:38:41.096Z,14.20
2022-11-20T12:41:08.583Z,14.80
2022-11-20T12:43:35.957Z,14.00
2022-11-20T12:46:03.472Z,13.90
2022-11-20T12:48:30.871Z,14.90
2022-11-20T12:51:14.631Z,13.80
2022-11-20T12:53:43.114Z,13.80
2022-11-20T12:56:10.569Z,13.90
2022-11-20T12:58:37.969Z,13.20
2022-11-20T13:01:05.473Z,14.10
2022-11-20T13:03:32.881Z,13.50
2022-11-20T13:06:00.293Z,14.70
2022-11-20T13:08:27.717Z,13.60
2022-11-20T13:10:55.181Z,12.30
2022-11-20T13:13:22.625Z,12.70
2022-11-20T13:15:50.026Z,12.70
2022-11-20T13:18:17.419Z,12.90
2022-11-20T13:20:44.875Z,13.70
2022-11-20T13:23:12.304Z,12.80
2022-11-20T13:25:39.953Z,12.60
2022-11-20T13:28:07.355Z,13.80
2022-11-20T13:30:34.773Z,13.20
2022-11-20T13:33:02.132Z,13.20
2022-11-20T13:35:29.615Z,12.80
2022-11-20T13:37:57.156Z,12.40
2022-11-20T13:40:24.545Z,12.00
2022-11-20T13:42:51.975Z,12.70
2022-11-20T13:45:19.405Z,12.70
2022-11-20T13:47:46.758Z,11.60
2022-11-20T13:50:14.238Z,12.60
2022-11-20T13:52:41.613Z,12.00
2022-11-20T13:55:09.076Z,12.30
2022-11-20T13:57:36.621Z,11.30
2022-11-20T14:00:04.101Z,11.70
2022-11-20T14:02:31.558Z,11.70
2022-11-20T14:04:58.972Z,11.80
2022-11-20T14:07:26.426Z,12.10
2022-11-20T14:09:53.933Z,12.10
2022-11-20T14:12:21.368Z,12.50
2022-11-20T14:14:48.746Z,12.30
2022-11-20T14:17:16.162Z,12.50
2022-11-20T14:19:43.748Z,12.50
2022-11-20T14:22:11.126Z,13.00
2022-11-20T14:24:38.694Z,11.80
2022-11-20T14:27:06.054Z,11.70
2022-11-20T14:29:33.472Z,11.40
2022-11-20T14:32:00.867Z,11.90
2022-11-20T14:34:28.210Z,12.20
2022-11-20T14:36:55.611Z,12.10
2022-11-20T14:39:23.047Z,11.90
2022-11-20T14:41:50.416Z,11.60
2022-11-20T14:44:17.810Z,11.50
2022-11-20T14:46:45.230Z,11.30
2022-11-20T14:49:12.673Z,11.10
2022-11-20T14:51:40.025Z,12.00
2022-11-20T14:54:07.573Z,11.40
2022-11-20T14:56:34.946Z,11.30
2022-11-20T14:59:02.392Z,11.30
2022-11-20T15:01:29.788Z,11.70
2022-11-20T15:03:57.178Z,11.50
2022-11-20T15:06:24.636Z,12.10
2022-11-20T15:08:52.015Z,12.10
2022-11-20T15:11:19.390Z,11.50
2022-11-20T15:13:46.769Z,11.90
2022-11-20T15:16:14.174Z,13.00
2022-11-20T15:18:41.565Z,13.00
2022-11-20T15:21:08.964Z,12.60
2022-11-20T15:23:36.330Z,12.70
2022-11-20T15:26:03.740Z,13.20
2022-11-20T15:28:31.190Z,12.40
2022-11-20T15:30:58.546Z,12.30
2022-11-20T15:33:25.998Z,12.20
2022-11-20T15:35:53.478Z,13.10
2022-11-20T15:38:20.967Z,12.10
2022-11-20T15:40:48.320Z,12.00
2022-11-20T15:43:15.817Z,12.40
2022-11-20T15:45:43.169Z,11.60
2022-11-20T15:48:10.558Z,12.10
2022-11-20T15:50:38.049Z,12.50
2022-11-20T15:53:05.474Z,12.20
2022-11-20T15:55:32.887Z,12.70
2022-11-20T15:58:00.233Z,12.00
2022-11-20T16:00:27.639Z,12.70
2022-11-20T16:02:55.051Z,11.60
2022-11-20T16:05:22.535Z,11.80
2022-11-20T16:07:49.934Z,12.20
2022-11-20T16:10:17.484Z,12.40
2022-11-20T16:12:44.960Z,11.70
2022-11-20T16:15:13.747Z,11.50
2022-11-20T16:17:41.334Z,12.70
2022-11-20T16:20:08.731Z,12.50
2022-11-20T16:22:36.118Z,11.80
2022-11-20T16:25:03.527Z,12.40
2022-11-20T16:27:30.907Z,12.70
2022-11-20T16:29:58.296Z,10.80
2022-11-20T16:32:25.646Z,11.40
2022-11-20T16:34:53.065Z,11.60
2022-11-20T16:37:20.468Z,11.90
2022-11-20T16:39:47.837Z,12.00
2022-11-20T16:42:15.226Z,12.30
2022-11-20T16:44:42.610Z,12.20
2022-11-20T16:47:10.150Z,12.30
2022-11-20T16:49:37.618Z,12.10
2022-11-20T16:52:05.023Z,12.20
2022-11-20T16:54:32.439Z,12.30
2022-11-20T16:56:59.817Z,11.90
2022-11-20T16:59:27.224Z,11.90
2022-11-20T17:01:54.701Z,11.90
2022-11-20T17:04:22.300Z,12.30
2022-11-20T17:06:49.913Z,12.20
2022-11-20T17:09:17.285Z,12.30
2022-11-20T17:11:44.752Z,12.20
2022-11-20T17:14:12.170Z,12.40
2022-11-20T17:16:39.564Z,12.50
2022-11-20T17:19:07.028Z,12.20
2022-11-20T17:21:34.407Z,12.50
2022-11-20T17:24:01.784Z,11.60
2022-11-20T17:26:29.265Z,12.50
2022-11-20T17:28:56.702Z,12.00
2022-11-20T17:31:24.091Z,12.40
2022-11-20T17:33:51.492Z,12.60
2022-11-20T17:36:18.870Z,12.60
2022-11-20T17:38:46.273Z,13.00
2022-11-20T17:41:13.718Z,12.20
2022-11-20T17:43:41.175Z,12.90
2022-11-20T17:46:08.577Z,12.10
2022-11-20T17:48:35.993Z,12.30
2022-11-20T17:51:03.441Z,13.20
2022-11-20T17:53:30.980Z,13.30
2022-11-20T17:55:58.359Z,12.90
2022-11-20T17:58:25.836Z,12.30
2022-11-20T18:00:53.243Z,12.60
2022-11-20T18:03:20.622Z,13.40
2022-11-20T18:05:48.009Z,12.90
2022-11-20T18:08:15.496Z,12.40
2022-11-20T18:10:42.832Z,12.90
2022-11-20T18:13:10.228Z,13.40
2022-11-20T18:15:37.656Z,12.90
2022-11-20T18:18:05.046Z,13.90
2022-11-20T18:20:38.199Z,14.30
2022-11-20T18:23:07.087Z,12.30
2022-11-20T18:25:34.523Z,14.00
2022-11-20T18:28:02.005Z,13.50
2022-11-20T18:30:29.359Z,13.30
2022-11-20T18:32:56.927Z,13.40
2022-11-20T18:35:24.279Z,13.50
2022-11-20T18:37:51.801Z,13.10
2022-11-20T18:40:19.151Z,13.90
2022-11-20T18:42:46.501Z,13.70
2022-11-20T18:45:16.441Z,13.40
2022-11-20T18:47:43.819Z,13.50
2022-11-20T18:50:11.193Z,13.30
2022-11-20T18:52:38.623Z,13.60
2022-11-20T18:55:06.072Z,13.00
2022-11-20T18:57:33.456Z,12.80
2022-11-20T19:00:06.491Z,13.00
2022-11-20T19:02:40.988Z,13.90
2022-11-20T19:05:09.415Z,13.80
2022-11-20T19:07:36.823Z,12.20
2022-11-20T19:10:04.632Z,12.90
2022-11-20T19:12:32.223Z,12.90
2022-11-20T19:14:59.612Z,12.60
2022-11-20T19:17:26.987Z,12.70
2022-11-20T19:19:54.617Z,12.50
2022-11-20T19:22:21.990Z,13.90
2022-11-20T19:24:49.457Z,13.50
2022-11-20T19:27:16.868Z,12.70
2022-11-20T19:29:44.207Z,13.40
2022-11-20T19:32:11.635Z,12.60
2022-11-20T19:34:39.093Z,12.20
2022-11-20T19:37:06.452Z,13.10
2022-11-20T19:39:33.856Z,13.20
2022-11-20T19:42:01.244Z,12.90
2022-11-20T19:44:28.717Z,13.10
2022-11-20T19:46:56.125Z,13.00
2022-11-20T19:49:23.687Z,12.40
2022-11-20T19:51:51.261Z,11.80
2022-11-20T19:54:18.671Z,12.90
2022-11-20T19:56:46.058Z,13.30
2022-11-20T19:59:13.463Z,11.90
2022-11-20T20:01:40.984Z,12.30
2022-11-20T20:04:08.381Z,12.80
2022-11-20T20:06:35.764Z,13.50
2022-11-20T20:09:03.138Z,12.80
2022-11-20T20:11:30.557Z,12.40
2022-11-20T20:13:58.000Z,11.90
2022-11-20T20:16:25.446Z,11.90
2022-11-20T20:18:52.853Z,12.20
2022-11-20T20:21:20.415Z,11.90
2022-11-20T20:23:47.806Z,26.10
2022-11-20T20:26:15.243Z,32.60
2022-11-20T20:28:42.664Z,15.90
2022-11-20T20:31:10.086Z,15.30
2022-11-20T20:33:37.900Z,16.10
2022-11-20T20:36:05.741Z,15.60
2022-11-20T20:38:33.117Z,15.20
2022-11-20T20:41:00.557Z,14.20
2022-11-20T20:43:27.921Z,13.90
2022-11-20T20:45:55.295Z,15.70
2022-11-20T20:48:22.625Z,14.30
2022-11-20T20:50:50.077Z,14.40
2022-11-20T20:53:17.501Z,14.90
2022-11-20T20:55:44.850Z,13.60
2022-11-20T20:58:12.215Z,13.20
2022-11-20T21:00:39.710Z,13.60
2022-11-20T21:03:07.105Z,14.40
2022-11-20T21:05:34.478Z,14.40
2022-11-20T21:08:01.913Z,13.70
2022-11-20T21:10:29.343Z,13.90
2022-11-20T21:12:56.875Z,13.30
2022-11-20T21:15:24.342Z,13.30
2022-11-20T21:17:51.702Z,12.90
2022-11-20T21:20:19.073Z,13.40
2022-11-20T21:22:46.428Z,12.00
2022-11-20T21:25:13.991Z,13.50
2022-11-20T21:27:41.372Z,14.90
2022-11-20T21:30:08.788Z,14.30
2022-11-20T21:32:36.259Z,13.50
2022-11-20T21:35:03.733Z,12.90
2022-11-20T21:37:31.125Z,13.10
2022-11-20T21:39:58.497Z,14.30
2022-11-20T21:42:25.892Z,13.90
2022-11-20T21:44:53.352Z,13.50
2022-11-20T21:47:22.194Z,13.80
2022-11-20T21:49:49.565Z,12.80
2022-11-20T21:52:16.987Z,13.40
2022-11-20T21:54:44.367Z,12.90
2022-11-20T21:57:11.900Z,12.90
2022-11-20T21:59:39.249Z,12.90
2022-11-20T22:02:06.769Z,13.20
2022-11-20T22:04:34.233Z,13.50
2022-11-20T22:07:01.721Z,12.30
2022-11-20T22:09:29.148Z,12.00
2022-11-20T22:11:56.507Z,12.40
2022-11-20T22:14:24.596Z,13.20
2022-11-20T22:16:52.419Z,12.10
2022-11-20T22:19:19.814Z,12.60
2022-11-20T22:21:47.167Z,12.70
2022-11-20T22:24:14.588Z,11.50
2022-11-20T22:26:42.009Z,12.90
2022-11-20T22:29:09.422Z,12.20
2022-11-20T22:31:36.922Z,12.20
2022-11-20T22:34:04.472Z,12.30
2022-11-20T22:36:31.829Z,12.10
2022-11-20T22:38:59.229Z,10.80
2022-11-20T22:41:26.729Z,11.80
2022-11-20T22:43:54.168Z,12.00
2022-11-20T22:46:21.498Z,11.80
2022-11-20T22:48:48.852Z,12.10
2022-11-20T22:51:16.249Z,11.70
2022-11-20T22:53:43.659Z,11.60
2022-11-20T22:56:11.115Z,11.90
2022-11-20T22:58:38.480Z,11.30
2022-11-20T23:01:05.890Z,11.60
2022-11-20T23:03:33.298Z,10.90
2022-11-20T23:06:00.845Z,11.70
2022-11-20T23:08:28.276Z,11.60
2022-11-20T23:10:55.963Z,11.40
2022-11-20T23:13:23.338Z,12.20
2022-11-20T23:15:50.703Z,10.90
2022-11-20T23:18:18.147Z,11.00
2022-11-20T23:20:45.534Z,11.30
2022-11-20T23:23:12.896Z,11.20
2022-11-20T23:25:40.291Z,11.30
2022-11-20T23:28:07.685Z,11.00
2022-11-20T23:30:35.030Z,11.60
2022-11-20T23:33:02.426Z,11.10
2022-11-20T23:35:29.844Z,11.30
2022-11-20T23:37:57.249Z,11.20
2022-11-20T23:40:24.677Z,10.00
2022-11-20T23:42:52.037Z,10.60
2022-11-20T23:45:19.451Z,10.60
2022-11-20T23:47:46.971Z,10.90
2022-11-20T23:50:14.378Z,11.60
2022-11-20T23:52:41.772Z,11.20
2022-11-20T23:55:09.218Z,10.50
2022-11-20T23:57:36.596Z,11.00
